sensor_id;sensor_type;location;lat;lon;timestamp;P1;durP1;ratioP1;P2;durP2;ratioP2
68484;SDS011;55472;50.060;21.960;2024-01-15T00:00:44;25.30;;;7.88;;
68484;SDS011;55472;50.060;21.960;2024-01-15T00:03:30;26.95;;;10.45;;
68484;SDS011;55472;50.060;21.960;2024-01-15T00:05:56;22.43;;;7.97;;
68484;SDS011;55472;50.060;21.960;2024-01-15T00:08:22;24.15;;;7.95;;
68484;SDS011;55472;50.060;21.960;2024-01-15T00:10:49;24.40;;;7.80;;
68484;SDS011;55472;50.060;21.960;2024-01-15T00:13:15;28.58;;;8.93;;
68484;SDS011;55472;50.060;21.960;2024-01-15T00:15:41;21.20;;;7.73;;
68484;SDS011;55472;50.060;21.960;2024-01-15T00:18:07;30.65;;;8.98;;
68484;SDS011;55472;50.060;21.960;2024-01-15T00:20:33;26.27;;;9.13;;
68484;SDS011;55472;50.060;21.960;2024-01-15T00:22:59;23.13;;;7.25;;
68484;SDS011;55472;50.060;21.960;2024-01-15T00:25:25;26.70;;;8.05;;
68484;SDS011;55472;50.060;21.960;2024-01-15T00:27:51;23.47;;;8.40;;
68484;SDS011;55472;50.060;21.960;2024-01-15T00:30:18;25.25;;;8.15;;
68484;SDS011;55472;50.060;21.960;2024-01-15T00:32:44;21.17;;;7.57;;
68484;SDS011;55472;50.060;21.960;2024-01-15T00:35:10;24.70;;;7.82;;
68484;SDS011;55472;50.060;21.960;2024-01-15T00:37:36;27.77;;;7.90;;
68484;SDS011;55472;50.060;21.960;2024-01-15T00:40:03;23.73;;;6.97;;
68484;SDS011;55472;50.060;21.960;2024-01-15T00:42:30;25.67;;;8.13;;
68484;SDS011;55472;50.060;21.960;2024-01-15T00:44:56;25.00;;;7.55;;
68484;SDS011;55472;50.060;21.960;2024-01-15T00:47:22;21.27;;;7.22;;
68484;SDS011;55472;50.060;21.960;2024-01-15T00:49:49;22.83;;;7.63;;
68484;SDS011;55472;50.060;21.960;2024-01-15T00:52:14;24.85;;;7.32;;
68484;SDS011;55472;50.060;21.960;2024-01-15T00:54:41;26.25;;;9.05;;
68484;SDS011;55472;50.060;21.960;2024-01-15T00:57:07;20.08;;;6.93;;
68484;SDS011;55472;50.060;21.960;2024-01-15T00:59:33;21.40;;;7.00;;
68484;SDS011;55472;50.060;21.960;2024-01-15T01:01:59;24.47;;;7.17;;
68484;SDS011;55472;50.060;21.960;2024-01-15T01:04:25;18.92;;;6.30;;
68484;SDS011;55472;50.060;21.960;2024-01-15T01:06:51;24.17;;;7.65;;
68484;SDS011;55472;50.060;21.960;2024-01-15T01:09:17;17.67;;;6.47;;
68484;SDS011;55472;50.060;21.960;2024-01-15T01:11:44;22.73;;;7.57;;
68484;SDS011;55472;50.060;21.960;2024-01-15T01:14:10;23.58;;;7.00;;
68484;SDS011;55472;50.060;21.960;2024-01-15T01:16:36;18.05;;;6.47;;
68484;SDS011;55472;50.060;21.960;2024-01-15T01:19:04;19.88;;;6.55;;
68484;SDS011;55472;50.060;21.960;2024-01-15T01:21:32;17.85;;;6.47;;
68484;SDS011;55472;50.060;21.960;2024-01-15T01:23:59;20.37;;;7.53;;
68484;SDS011;55472;50.060;21.960;2024-01-15T01:26:25;24.02;;;7.03;;
68484;SDS011;55472;50.060;21.960;2024-01-15T01:28:51;20.63;;;7.30;;
68484;SDS011;55472;50.060;21.960;2024-01-15T01:31:17;22.02;;;7.22;;
68484;SDS011;55472;50.060;21.960;2024-01-15T01:33:43;21.27;;;6.30;;
68484;SDS011;55472;50.060;21.960;2024-01-15T01:36:09;20.90;;;6.90;;
68484;SDS011;55472;50.060;21.960;2024-01-15T01:38:36;18.65;;;6.82;;
68484;SDS011;55472;50.060;21.960;2024-01-15T01:41:03;18.35;;;6.70;;
68484;SDS011;55472;50.060;21.960;2024-01-15T01:43:29;19.88;;;6.13;;
68484;SDS011;55472;50.060;21.960;2024-01-15T01:45:56;19.25;;;6.65;;
68484;SDS011;55472;50.060;21.960;2024-01-15T01:48:24;19.80;;;6.50;;
68484;SDS011;55472;50.060;21.960;2024-01-15T01:50:54;20.08;;;7.00;;
68484;SDS011;55472;50.060;21.960;2024-01-15T01:53:25;19.27;;;6.55;;
68484;SDS011;55472;50.060;21.960;2024-01-15T01:55:53;19.85;;;6.38;;
68484;SDS011;55472;50.060;21.960;2024-01-15T01:58:21;17.23;;;6.30;;
68484;SDS011;55472;50.060;21.960;2024-01-15T02:00:47;21.97;;;6.63;;
68484;SDS011;55472;50.060;21.960;2024-01-15T02:03:14;15.13;;;4.90;;
68484;SDS011;55472;50.060;21.960;2024-01-15T02:05:42;17.25;;;6.18;;
68484;SDS011;55472;50.060;21.960;2024-01-15T02:08:09;16.92;;;6.05;;
68484;SDS011;55472;50.060;21.960;2024-01-15T02:10:36;15.10;;;5.15;;
68484;SDS011;55472;50.060;21.960;2024-01-15T02:13:02;16.67;;;6.00;;
68484;SDS011;55472;50.060;21.960;2024-01-15T02:15:28;14.55;;;5.55;;
68484;SDS011;55472;50.060;21.960;2024-01-15T02:17:59;14.07;;;4.40;;
68484;SDS011;55472;50.060;21.960;2024-01-15T02:20:27;14.32;;;5.47;;
68484;SDS011;55472;50.060;21.960;2024-01-15T02:22:53;16.67;;;5.03;;
68484;SDS011;55472;50.060;21.960;2024-01-15T02:25:20;17.92;;;6.10;;
68484;SDS011;55472;50.060;21.960;2024-01-15T02:27:46;13.80;;;5.50;;
68484;SDS011;55472;50.060;21.960;2024-01-15T02:30:13;14.07;;;5.10;;
68484;SDS011;55472;50.060;21.960;2024-01-15T02:32:39;15.05;;;5.28;;
68484;SDS011;55472;50.060;21.960;2024-01-15T02:35:05;16.70;;;5.13;;
68484;SDS011;55472;50.060;21.960;2024-01-15T02:37:32;16.73;;;5.43;;
68484;SDS011;55472;50.060;21.960;2024-01-15T02:39:58;13.50;;;5.45;;
68484;SDS011;55472;50.060;21.960;2024-01-15T02:42:25;17.40;;;5.63;;
68484;SDS011;55472;50.060;21.960;2024-01-15T02:44:52;13.77;;;4.78;;
68484;SDS011;55472;50.060;21.960;2024-01-15T02:47:18;14.73;;;6.20;;
68484;SDS011;55472;50.060;21.960;2024-01-15T02:49:44;13.98;;;5.47;;
68484;SDS011;55472;50.060;21.960;2024-01-15T02:52:10;11.30;;;4.32;;
68484;SDS011;55472;50.060;21.960;2024-01-15T02:54:36;15.23;;;5.10;;
68484;SDS011;55472;50.060;21.960;2024-01-15T02:57:02;14.63;;;5.67;;
68484;SDS011;55472;50.060;21.960;2024-01-15T02:59:29;12.10;;;4.70;;
68484;SDS011;55472;50.060;21.960;2024-01-15T03:01:55;16.17;;;5.20;;
68484;SDS011;55472;50.060;21.960;2024-01-15T03:04:21;16.02;;;5.03;;
68484;SDS011;55472;50.060;21.960;2024-01-15T03:06:47;12.70;;;4.83;;
68484;SDS011;55472;50.060;21.960;2024-01-15T03:09:13;12.47;;;4.93;;
68484;SDS011;55472;50.060;21.960;2024-01-15T03:11:39;11.70;;;4.00;;
68484;SDS011;55472;50.060;21.960;2024-01-15T03:14:06;12.88;;;4.72;;
68484;SDS011;55472;50.060;21.960;2024-01-15T03:16:32;14.85;;;4.90;;
68484;SDS011;55472;50.060;21.960;2024-01-15T03:18:58;12.20;;;4.60;;
68484;SDS011;55472;50.060;21.960;2024-01-15T03:21:24;13.80;;;4.28;;
68484;SDS011;55472;50.060;21.960;2024-01-15T03:23:50;15.43;;;5.00;;
68484;SDS011;55472;50.060;21.960;2024-01-15T03:26:16;13.32;;;4.75;;
68484;SDS011;55472;50.060;21.960;2024-01-15T03:28:42;13.40;;;3.60;;
68484;SDS011;55472;50.060;21.960;2024-01-15T03:31:08;16.55;;;5.63;;
68484;SDS011;55472;50.060;21.960;2024-01-15T03:33:35;14.25;;;4.97;;
68484;SDS011;55472;50.060;21.960;2024-01-15T03:36:00;13.27;;;4.22;;
68484;SDS011;55472;50.060;21.960;2024-01-15T03:38:28;13.47;;;4.73;;
68484;SDS011;55472;50.060;21.960;2024-01-15T03:40:54;14.30;;;3.97;;
68484;SDS011;55472;50.060;21.960;2024-01-15T03:43:20;14.15;;;4.80;;
68484;SDS011;55472;50.060;21.960;2024-01-15T03:45:46;12.15;;;4.35;;
68484;SDS011;55472;50.060;21.960;2024-01-15T03:48:13;13.40;;;5.25;;
68484;SDS011;55472;50.060;21.960;2024-01-15T03:50:38;13.90;;;4.97;;
68484;SDS011;55472;50.060;21.960;2024-01-15T03:53:05;12.30;;;4.15;;
68484;SDS011;55472;50.060;21.960;2024-01-15T03:55:31;12.57;;;4.50;;
68484;SDS011;55472;50.060;21.960;2024-01-15T03:57:58;12.30;;;4.68;;
68484;SDS011;55472;50.060;21.960;2024-01-15T04:00:24;9.45;;;3.78;;
68484;SDS011;55472;50.060;21.960;2024-01-15T04:02:50;14.47;;;5.20;;
68484;SDS011;55472;50.060;21.960;2024-01-15T04:05:16;12.75;;;4.95;;
68484;SDS011;55472;50.060;21.960;2024-01-15T04:07:42;13.98;;;3.97;;
68484;SDS011;55472;50.060;21.960;2024-01-15T04:10:08;14.00;;;4.45;;
68484;SDS011;55472;50.060;21.960;2024-01-15T04:12:35;8.90;;;3.40;;
68484;SDS011;55472;50.060;21.960;2024-01-15T04:15:01;12.90;;;4.27;;
68484;SDS011;55472;50.060;21.960;2024-01-15T04:17:27;11.82;;;3.60;;
68484;SDS011;55472;50.060;21.960;2024-01-15T04:19:54;8.07;;;2.63;;
68484;SDS011;55472;50.060;21.960;2024-01-15T04:22:20;13.82;;;4.63;;
68484;SDS011;55472;50.060;21.960;2024-01-15T04:24:47;15.63;;;4.13;;
68484;SDS011;55472;50.060;21.960;2024-01-15T04:27:13;14.70;;;4.67;;
68484;SDS011;55472;50.060;21.960;2024-01-15T04:29:39;10.95;;;3.70;;
68484;SDS011;55472;50.060;21.960;2024-01-15T04:32:06;11.80;;;4.22;;
68484;SDS011;55472;50.060;21.960;2024-01-15T04:34:32;12.20;;;4.28;;
68484;SDS011;55472;50.060;21.960;2024-01-15T04:36:58;18.17;;;6.30;;
68484;SDS011;55472;50.060;21.960;2024-01-15T04:39:24;21.60;;;6.47;;
68484;SDS011;55472;50.060;21.960;2024-01-15T04:41:50;16.48;;;5.70;;
68484;SDS011;55472;50.060;21.960;2024-01-15T04:44:16;18.67;;;4.07;;
68484;SDS011;55472;50.060;21.960;2024-01-15T04:46:43;21.17;;;6.68;;
68484;SDS011;55472;50.060;21.960;2024-01-15T04:49:09;26.93;;;8.73;;
68484;SDS011;55472;50.060;21.960;2024-01-15T04:51:36;20.98;;;5.85;;
68484;SDS011;55472;50.060;21.960;2024-01-15T04:54:03;28.60;;;8.98;;
68484;SDS011;55472;50.060;21.960;2024-01-15T04:56:29;28.33;;;7.28;;
68484;SDS011;55472;50.060;21.960;2024-01-15T04:58:55;25.05;;;8.00;;
68484;SDS011;55472;50.060;21.960;2024-01-15T05:01:22;24.17;;;7.37;;
68484;SDS011;55472;50.060;21.960;2024-01-15T05:03:47;15.80;;;5.32;;
68484;SDS011;55472;50.060;21.960;2024-01-15T05:06:15;39.15;;;10.68;;
68484;SDS011;55472;50.060;21.960;2024-01-15T05:08:41;28.90;;;8.18;;
68484;SDS011;55472;50.060;21.960;2024-01-15T05:11:07;30.42;;;7.50;;
68484;SDS011;55472;50.060;21.960;2024-01-15T05:13:33;15.97;;;4.20;;
68484;SDS011;55472;50.060;21.960;2024-01-15T05:15:59;33.85;;;8.35;;
68484;SDS011;55472;50.060;21.960;2024-01-15T05:18:25;26.23;;;7.50;;
68484;SDS011;55472;50.060;21.960;2024-01-15T05:20:52;24.88;;;7.45;;
68484;SDS011;55472;50.060;21.960;2024-01-15T05:23:18;27.48;;;7.70;;
68484;SDS011;55472;50.060;21.960;2024-01-15T05:25:44;27.23;;;7.33;;
68484;SDS011;55472;50.060;21.960;2024-01-15T05:28:10;26.42;;;7.40;;
68484;SDS011;55472;50.060;21.960;2024-01-15T05:30:36;53.92;;;11.80;;
68484;SDS011;55472;50.060;21.960;2024-01-15T05:33:02;30.58;;;7.45;;
68484;SDS011;55472;50.060;21.960;2024-01-15T05:35:29;20.20;;;5.80;;
68484;SDS011;55472;50.060;21.960;2024-01-15T05:37:55;11.68;;;3.60;;
68484;SDS011;55472;50.060;21.960;2024-01-15T05:40:21;13.23;;;4.82;;
68484;SDS011;55472;50.060;21.960;2024-01-15T05:42:47;13.25;;;4.40;;
68484;SDS011;55472;50.060;21.960;2024-01-15T05:45:13;16.77;;;5.03;;
68484;SDS011;55472;50.060;21.960;2024-01-15T05:47:40;16.02;;;5.32;;
68484;SDS011;55472;50.060;21.960;2024-01-15T05:50:06;14.38;;;5.45;;
68484;SDS011;55472;50.060;21.960;2024-01-15T05:52:33;17.98;;;5.10;;
68484;SDS011;55472;50.060;21.960;2024-01-15T05:54:59;13.60;;;5.32;;
68484;SDS011;55472;50.060;21.960;2024-01-15T05:57:25;16.03;;;4.63;;
68484;SDS011;55472;50.060;21.960;2024-01-15T05:59:52;17.67;;;5.88;;
68484;SDS011;55472;50.060;21.960;2024-01-15T06:02:18;18.42;;;5.70;;
68484;SDS011;55472;50.060;21.960;2024-01-15T06:04:44;23.67;;;6.72;;
68484;SDS011;55472;50.060;21.960;2024-01-15T06:07:10;22.70;;;8.20;;
68484;SDS011;55472;50.060;21.960;2024-01-15T06:09:36;31.00;;;8.77;;
68484;SDS011;55472;50.060;21.960;2024-01-15T06:12:03;28.58;;;12.05;;
68484;SDS011;55472;50.060;21.960;2024-01-15T06:14:32;22.10;;;7.82;;
68484;SDS011;55472;50.060;21.960;2024-01-15T06:16:58;29.02;;;9.38;;
68484;SDS011;55472;50.060;21.960;2024-01-15T06:19:24;33.85;;;15.43;;
68484;SDS011;55472;50.060;21.960;2024-01-15T06:21:50;34.77;;;12.30;;
68484;SDS011;55472;50.060;21.960;2024-01-15T06:24:17;19.40;;;7.18;;
68484;SDS011;55472;50.060;21.960;2024-01-15T06:26:46;9.43;;;4.00;;
68484;SDS011;55472;50.060;21.960;2024-01-15T06:29:13;13.93;;;4.40;;
68484;SDS011;55472;50.060;21.960;2024-01-15T06:31:39;18.70;;;6.43;;
68484;SDS011;55472;50.060;21.960;2024-01-15T06:34:05;16.93;;;6.23;;
68484;SDS011;55472;50.060;21.960;2024-01-15T06:36:31;16.45;;;6.30;;
68484;SDS011;55472;50.060;21.960;2024-01-15T06:38:57;11.13;;;5.03;;
68484;SDS011;55472;50.060;21.960;2024-01-15T06:41:23;14.75;;;5.35;;
68484;SDS011;55472;50.060;21.960;2024-01-15T06:43:51;15.77;;;6.13;;
68484;SDS011;55472;50.060;21.960;2024-01-15T06:46:20;18.23;;;5.22;;
68484;SDS011;55472;50.060;21.960;2024-01-15T06:48:47;14.70;;;5.18;;
68484;SDS011;55472;50.060;21.960;2024-01-15T06:51:15;15.48;;;5.68;;
68484;SDS011;55472;50.060;21.960;2024-01-15T06:53:41;16.20;;;5.18;;
68484;SDS011;55472;50.060;21.960;2024-01-15T06:56:08;17.83;;;6.17;;
68484;SDS011;55472;50.060;21.960;2024-01-15T06:58:34;15.95;;;5.65;;
68484;SDS011;55472;50.060;21.960;2024-01-15T07:01:00;15.40;;;4.38;;
68484;SDS011;55472;50.060;21.960;2024-01-15T07:03:27;11.55;;;4.60;;
68484;SDS011;55472;50.060;21.960;2024-01-15T07:05:53;15.93;;;4.90;;
68484;SDS011;55472;50.060;21.960;2024-01-15T07:08:19;15.47;;;5.40;;
68484;SDS011;55472;50.060;21.960;2024-01-15T07:10:45;21.15;;;6.32;;
68484;SDS011;55472;50.060;21.960;2024-01-15T07:13:12;14.02;;;5.00;;
68484;SDS011;55472;50.060;21.960;2024-01-15T07:15:38;17.13;;;6.45;;
68484;SDS011;55472;50.060;21.960;2024-01-15T07:18:04;18.60;;;6.30;;
68484;SDS011;55472;50.060;21.960;2024-01-15T07:20:30;18.60;;;5.90;;
68484;SDS011;55472;50.060;21.960;2024-01-15T07:22:57;32.78;;;8.60;;
68484;SDS011;55472;50.060;21.960;2024-01-15T07:25:23;38.63;;;11.95;;
68484;SDS011;55472;50.060;21.960;2024-01-15T07:27:51;37.63;;;10.63;;
68484;SDS011;55472;50.060;21.960;2024-01-15T07:30:19;41.10;;;11.18;;
68484;SDS011;55472;50.060;21.960;2024-01-15T07:32:47;36.27;;;11.87;;
68484;SDS011;55472;50.060;21.960;2024-01-15T07:35:14;37.78;;;12.80;;
68484;SDS011;55472;50.060;21.960;2024-01-15T07:37:41;25.23;;;9.50;;
68484;SDS011;55472;50.060;21.960;2024-01-15T07:40:07;17.90;;;6.30;;
68484;SDS011;55472;50.060;21.960;2024-01-15T07:42:34;18.45;;;6.30;;
68484;SDS011;55472;50.060;21.960;2024-01-15T07:45:00;18.97;;;7.90;;
68484;SDS011;55472;50.060;21.960;2024-01-15T07:47:27;21.35;;;7.60;;
68484;SDS011;55472;50.060;21.960;2024-01-15T07:49:53;19.17;;;6.53;;
68484;SDS011;55472;50.060;21.960;2024-01-15T07:52:20;15.13;;;6.05;;
68484;SDS011;55472;50.060;21.960;2024-01-15T07:54:46;19.58;;;4.75;;
68484;SDS011;55472;50.060;21.960;2024-01-15T07:57:12;16.50;;;5.73;;
68484;SDS011;55472;50.060;21.960;2024-01-15T07:59:38;11.50;;;4.65;;
68484;SDS011;55472;50.060;21.960;2024-01-15T08:02:05;19.85;;;6.70;;
68484;SDS011;55472;50.060;21.960;2024-01-15T08:04:31;16.13;;;5.65;;
68484;SDS011;55472;50.060;21.960;2024-01-15T08:06:58;11.98;;;4.88;;
68484;SDS011;55472;50.060;21.960;2024-01-15T08:09:24;15.73;;;6.13;;
68484;SDS011;55472;50.060;21.960;2024-01-15T08:11:50;18.02;;;6.80;;
68484;SDS011;55472;50.060;21.960;2024-01-15T08:14:16;15.32;;;5.60;;
68484;SDS011;55472;50.060;21.960;2024-01-15T08:16:43;14.40;;;6.43;;
68484;SDS011;55472;50.060;21.960;2024-01-15T08:19:09;20.83;;;7.20;;
68484;SDS011;55472;50.060;21.960;2024-01-15T08:21:35;19.42;;;6.45;;
68484;SDS011;55472;50.060;21.960;2024-01-15T08:24:02;24.48;;;8.45;;
68484;SDS011;55472;50.060;21.960;2024-01-15T08:26:29;30.58;;;9.73;;
68484;SDS011;55472;50.060;21.960;2024-01-15T08:28:55;22.57;;;6.93;;
68484;SDS011;55472;50.060;21.960;2024-01-15T08:31:22;25.05;;;7.85;;
68484;SDS011;55472;50.060;21.960;2024-01-15T08:33:48;22.02;;;6.75;;
68484;SDS011;55472;50.060;21.960;2024-01-15T08:36:15;18.75;;;7.05;;
68484;SDS011;55472;50.060;21.960;2024-01-15T08:38:41;24.30;;;7.65;;
68484;SDS011;55472;50.060;21.960;2024-01-15T08:41:07;21.30;;;6.80;;
68484;SDS011;55472;50.060;21.960;2024-01-15T08:43:34;22.13;;;8.00;;
68484;SDS011;55472;50.060;21.960;2024-01-15T08:46:01;25.13;;;7.78;;
68484;SDS011;55472;50.060;21.960;2024-01-15T08:48:27;19.30;;;6.88;;
68484;SDS011;55472;50.060;21.960;2024-01-15T08:50:54;19.65;;;6.22;;
68484;SDS011;55472;50.060;21.960;2024-01-15T08:53:20;15.97;;;6.00;;
68484;SDS011;55472;50.060;21.960;2024-01-15T08:55:47;18.20;;;5.72;;
68484;SDS011;55472;50.060;21.960;2024-01-15T08:58:13;18.92;;;6.10;;
68484;SDS011;55472;50.060;21.960;2024-01-15T09:00:40;18.55;;;6.03;;
68484;SDS011;55472;50.060;21.960;2024-01-15T09:03:06;15.95;;;6.40;;
68484;SDS011;55472;50.060;21.960;2024-01-15T09:05:34;16.73;;;6.67;;
68484;SDS011;55472;50.060;21.960;2024-01-15T09:08:00;14.98;;;5.95;;
68484;SDS011;55472;50.060;21.960;2024-01-15T09:10:26;16.17;;;5.80;;
68484;SDS011;55472;50.060;21.960;2024-01-15T09:12:52;19.73;;;6.07;;
68484;SDS011;55472;50.060;21.960;2024-01-15T09:15:18;20.85;;;7.75;;
68484;SDS011;55472;50.060;21.960;2024-01-15T09:17:45;23.53;;;6.73;;
68484;SDS011;55472;50.060;21.960;2024-01-15T09:20:11;17.92;;;5.82;;
68484;SDS011;55472;50.060;21.960;2024-01-15T09:22:38;19.27;;;6.00;;
68484;SDS011;55472;50.060;21.960;2024-01-15T09:25:07;15.95;;;5.70;;
68484;SDS011;55472;50.060;21.960;2024-01-15T09:27:35;22.67;;;7.57;;
68484;SDS011;55472;50.060;21.960;2024-01-15T09:30:02;26.47;;;9.07;;
68484;SDS011;55472;50.060;21.960;2024-01-15T09:32:30;20.15;;;6.60;;
68484;SDS011;55472;50.060;21.960;2024-01-15T09:34:58;17.33;;;5.35;;
68484;SDS011;55472;50.060;21.960;2024-01-15T09:37:24;18.50;;;6.18;;
68484;SDS011;55472;50.060;21.960;2024-01-15T09:39:51;17.80;;;6.65;;
68484;SDS011;55472;50.060;21.960;2024-01-15T09:42:16;21.03;;;6.70;;
68484;SDS011;55472;50.060;21.960;2024-01-15T09:44:44;21.30;;;7.65;;
68484;SDS011;55472;50.060;21.960;2024-01-15T09:47:11;20.27;;;6.28;;
68484;SDS011;55472;50.060;21.960;2024-01-15T09:49:38;16.33;;;5.60;;
68484;SDS011;55472;50.060;21.960;2024-01-15T09:52:06;16.08;;;5.82;;
68484;SDS011;55472;50.060;21.960;2024-01-15T09:54:33;16.43;;;6.07;;
68484;SDS011;55472;50.060;21.960;2024-01-15T09:57:03;17.80;;;5.95;;
68484;SDS011;55472;50.060;21.960;2024-01-15T09:59:29;12.30;;;5.38;;
68484;SDS011;55472;50.060;21.960;2024-01-15T10:01:56;14.93;;;5.07;;
68484;SDS011;55472;50.060;21.960;2024-01-15T10:04:24;16.02;;;5.93;;
68484;SDS011;55472;50.060;21.960;2024-01-15T10:06:50;15.60;;;5.10;;
68484;SDS011;55472;50.060;21.960;2024-01-15T10:09:17;21.42;;;6.20;;
68484;SDS011;55472;50.060;21.960;2024-01-15T10:11:44;18.63;;;6.22;;
68484;SDS011;55472;50.060;21.960;2024-01-15T10:14:11;17.17;;;6.78;;
68484;SDS011;55472;50.060;21.960;2024-01-15T10:16:41;29.00;;;8.15;;
68484;SDS011;55472;50.060;21.960;2024-01-15T10:19:10;47.10;;;12.20;;
68484;SDS011;55472;50.060;21.960;2024-01-15T10:21:36;34.83;;;10.30;;
68484;SDS011;55472;50.060;21.960;2024-01-15T10:24:03;35.45;;;9.57;;
68484;SDS011;55472;50.060;21.960;2024-01-15T10:26:30;77.97;;;19.45;;
68484;SDS011;55472;50.060;21.960;2024-01-15T10:29:00;29.10;;;9.63;;
68484;SDS011;55472;50.060;21.960;2024-01-15T10:31:30;47.27;;;12.47;;
68484;SDS011;55472;50.060;21.960;2024-01-15T10:34:12;54.25;;;15.48;;
68484;SDS011;55472;50.060;21.960;2024-01-15T10:36:40;46.92;;;14.52;;
68484;SDS011;55472;50.060;21.960;2024-01-15T10:39:07;33.40;;;10.57;;
68484;SDS011;55472;50.060;21.960;2024-01-15T10:41:33;15.90;;;6.43;;
68484;SDS011;55472;50.060;21.960;2024-01-15T10:43:59;26.53;;;9.00;;
68484;SDS011;55472;50.060;21.960;2024-01-15T10:46:25;19.83;;;6.47;;
68484;SDS011;55472;50.060;21.960;2024-01-15T10:48:52;15.50;;;5.40;;
68484;SDS011;55472;50.060;21.960;2024-01-15T10:51:19;19.13;;;6.78;;
68484;SDS011;55472;50.060;21.960;2024-01-15T10:53:45;15.95;;;5.72;;
68484;SDS011;55472;50.060;21.960;2024-01-15T10:56:11;22.07;;;6.73;;
68484;SDS011;55472;50.060;21.960;2024-01-15T10:58:39;21.25;;;7.43;;
68484;SDS011;55472;50.060;21.960;2024-01-15T11:01:07;19.65;;;6.10;;
68484;SDS011;55472;50.060;21.960;2024-01-15T11:03:34;19.42;;;6.25;;
68484;SDS011;55472;50.060;21.960;2024-01-15T11:06:00;17.13;;;5.95;;
68484;SDS011;55472;50.060;21.960;2024-01-15T11:08:26;14.67;;;4.83;;
68484;SDS011;55472;50.060;21.960;2024-01-15T11:10:52;17.98;;;4.88;;
68484;SDS011;55472;50.060;21.960;2024-01-15T11:15:59;18.48;;;6.50;;
68484;SDS011;55472;50.060;21.960;2024-01-15T11:18:41;15.98;;;6.35;;
68484;SDS011;55472;50.060;21.960;2024-01-15T11:23:48;19.05;;;5.50;;
68484;SDS011;55472;50.060;21.960;2024-01-15T11:29:04;17.30;;;6.35;;
68484;SDS011;55472;50.060;21.960;2024-01-15T11:34:05;25.70;;;7.33;;
68484;SDS011;55472;50.060;21.960;2024-01-15T11:41:54;12.43;;;4.30;;
68484;SDS011;55472;50.060;21.960;2024-01-15T11:44:21;9.90;;;3.30;;
68484;SDS011;55472;50.060;21.960;2024-01-15T11:52:37;7.75;;;2.20;;
68484;SDS011;55472;50.060;21.960;2024-01-15T12:00:20;8.97;;;3.10;;
68484;SDS011;55472;50.060;21.960;2024-01-15T12:02:47;11.88;;;3.70;;
68484;SDS011;55472;50.060;21.960;2024-01-15T12:05:16;10.52;;;3.70;;
68484;SDS011;55472;50.060;21.960;2024-01-15T12:07:45;10.65;;;3.30;;
68484;SDS011;55472;50.060;21.960;2024-01-15T12:10:16;11.48;;;3.55;;
68484;SDS011;55472;50.060;21.960;2024-01-15T12:15:24;15.52;;;4.05;;
68484;SDS011;55472;50.060;21.960;2024-01-15T12:17:52;14.70;;;5.20;;
68484;SDS011;55472;50.060;21.960;2024-01-15T12:20:20;13.57;;;3.92;;
68484;SDS011;55472;50.060;21.960;2024-01-15T12:22:47;11.73;;;3.38;;
68484;SDS011;55472;50.060;21.960;2024-01-15T12:25:13;8.67;;;3.03;;
68484;SDS011;55472;50.060;21.960;2024-01-15T12:27:39;9.02;;;2.85;;
68484;SDS011;55472;50.060;21.960;2024-01-15T12:30:10;8.38;;;2.67;;
68484;SDS011;55472;50.060;21.960;2024-01-15T12:32:39;10.25;;;2.97;;
68484;SDS011;55472;50.060;21.960;2024-01-15T12:35:07;11.15;;;3.35;;
68484;SDS011;55472;50.060;21.960;2024-01-15T12:37:44;10.50;;;2.70;;
68484;SDS011;55472;50.060;21.960;2024-01-15T12:40:13;15.40;;;4.07;;
68484;SDS011;55472;50.060;21.960;2024-01-15T12:42:45;9.05;;;2.25;;
68484;SDS011;55472;50.060;21.960;2024-01-15T12:45:11;8.38;;;2.85;;
68484;SDS011;55472;50.060;21.960;2024-01-15T12:47:38;9.38;;;3.20;;
68484;SDS011;55472;50.060;21.960;2024-01-15T12:50:07;10.33;;;3.30;;
68484;SDS011;55472;50.060;21.960;2024-01-15T12:52:34;12.55;;;4.57;;
68484;SDS011;55472;50.060;21.960;2024-01-15T12:55:06;9.07;;;2.60;;
68484;SDS011;55472;50.060;21.960;2024-01-15T12:57:34;6.93;;;2.40;;
68484;SDS011;55472;50.060;21.960;2024-01-15T13:00:02;11.38;;;3.60;;
68484;SDS011;55472;50.060;21.960;2024-01-15T13:02:34;12.83;;;3.90;;
68484;SDS011;55472;50.060;21.960;2024-01-15T13:05:00;10.40;;;3.70;;
68484;SDS011;55472;50.060;21.960;2024-01-15T13:07:29;10.15;;;3.53;;
68484;SDS011;55472;50.060;21.960;2024-01-15T13:09:56;14.10;;;3.97;;
68484;SDS011;55472;50.060;21.960;2024-01-15T13:12:21;13.67;;;4.33;;
68484;SDS011;55472;50.060;21.960;2024-01-15T13:14:50;15.03;;;3.67;;
68484;SDS011;55472;50.060;21.960;2024-01-15T13:17:16;13.02;;;4.28;;
68484;SDS011;55472;50.060;21.960;2024-01-15T13:19:43;12.55;;;3.95;;
68484;SDS011;55472;50.060;21.960;2024-01-15T13:22:09;18.60;;;4.90;;
68484;SDS011;55472;50.060;21.960;2024-01-15T13:24:35;17.33;;;5.13;;
68484;SDS011;55472;50.060;21.960;2024-01-15T13:27:04;13.40;;;4.03;;
68484;SDS011;55472;50.060;21.960;2024-01-15T13:29:31;15.65;;;4.68;;
68484;SDS011;55472;50.060;21.960;2024-01-15T13:31:57;10.65;;;3.75;;
68484;SDS011;55472;50.060;21.960;2024-01-15T13:34:24;9.70;;;3.40;;
68484;SDS011;55472;50.060;21.960;2024-01-15T13:36:50;12.03;;;3.50;;
68484;SDS011;55472;50.060;21.960;2024-01-15T13:39:19;14.73;;;5.05;;
68484;SDS011;55472;50.060;21.960;2024-01-15T13:41:46;13.85;;;3.97;;
68484;SDS011;55472;50.060;21.960;2024-01-15T13:44:12;10.38;;;4.18;;
68484;SDS011;55472;50.060;21.960;2024-01-15T13:46:38;7.40;;;2.60;;
68484;SDS011;55472;50.060;21.960;2024-01-15T13:49:05;8.23;;;2.70;;
68484;SDS011;55472;50.060;21.960;2024-01-15T13:51:34;7.10;;;2.20;;
68484;SDS011;55472;50.060;21.960;2024-01-15T13:54:02;8.30;;;2.78;;
68484;SDS011;55472;50.060;21.960;2024-01-15T13:56:30;10.73;;;3.10;;
68484;SDS011;55472;50.060;21.960;2024-01-15T13:58:58;14.93;;;4.38;;
68484;SDS011;55472;50.060;21.960;2024-01-15T14:01:24;13.50;;;4.00;;
68484;SDS011;55472;50.060;21.960;2024-01-15T14:03:53;10.90;;;2.95;;
68484;SDS011;55472;50.060;21.960;2024-01-15T14:06:19;8.85;;;2.75;;
68484;SDS011;55472;50.060;21.960;2024-01-15T14:08:46;9.25;;;3.20;;
68484;SDS011;55472;50.060;21.960;2024-01-15T14:11:12;10.43;;;2.90;;
68484;SDS011;55472;50.060;21.960;2024-01-15T14:13:38;11.97;;;3.10;;
68484;SDS011;55472;50.060;21.960;2024-01-15T14:16:05;8.75;;;2.72;;
68484;SDS011;55472;50.060;21.960;2024-01-15T14:18:31;12.68;;;2.88;;
68484;SDS011;55472;50.060;21.960;2024-01-15T14:20:57;8.45;;;2.78;;
68484;SDS011;55472;50.060;21.960;2024-01-15T14:23:24;9.55;;;2.65;;
68484;SDS011;55472;50.060;21.960;2024-01-15T14:25:50;10.70;;;3.07;;
68484;SDS011;55472;50.060;21.960;2024-01-15T14:28:16;12.13;;;3.03;;
68484;SDS011;55472;50.060;21.960;2024-01-15T14:30:42;11.15;;;3.25;;
68484;SDS011;55472;50.060;21.960;2024-01-15T14:33:08;11.40;;;3.85;;
68484;SDS011;55472;50.060;21.960;2024-01-15T14:35:34;10.25;;;3.15;;
68484;SDS011;55472;50.060;21.960;2024-01-15T14:38:01;10.07;;;3.43;;
68484;SDS011;55472;50.060;21.960;2024-01-15T14:40:27;12.77;;;3.53;;
68484;SDS011;55472;50.060;21.960;2024-01-15T14:42:54;13.88;;;3.60;;
68484;SDS011;55472;50.060;21.960;2024-01-15T14:45:20;18.48;;;5.70;;
68484;SDS011;55472;50.060;21.960;2024-01-15T14:47:46;11.00;;;3.45;;